createdAt,value
2018-11-07T00:01:04.645Z,5.90
2018-11-07T00:03:36.433Z,5.90
2018-11-07T00:06:11.977Z,6.00
2018-11-07T00:08:42.869Z,6.00
2018-11-07T00:11:13.653Z,5.80
2018-11-07T00:13:47.849Z,5.70
2018-11-07T00:16:19.664Z,5.80
2018-11-07T00:18:49.441Z,6.00
2018-11-07T00:21:19.240Z,6.10
2018-11-07T00:23:57.241Z,6.10
2018-11-07T00:26:29.124Z,5.90
2018-11-07T00:28:59.985Z,5.80
2018-11-07T00:31:31.825Z,5.80
2018-11-07T00:34:01.839Z,5.70
2018-11-07T00:36:31.754Z,5.70
2018-11-07T00:39:01.638Z,5.60
2018-11-07T00:41:35.561Z,5.50
2018-11-07T00:44:15.245Z,5.40
2018-11-07T00:46:51.857Z,5.30
2018-11-07T00:49:23.133Z,5.30
2018-11-07T00:51:56.965Z,5.30
2018-11-07T00:54:27.772Z,5.30
2018-11-07T00:57:02.937Z,5.30
2018-11-07T00:59:37.057Z,5.30
2018-11-07T01:02:06.877Z,5.30
2018-11-07T01:04:36.789Z,5.20
2018-11-07T01:07:06.712Z,5.10
2018-11-07T01:09:36.809Z,5.20
2018-11-07T01:12:07.552Z,5.40
2018-11-07T01:14:43.117Z,5.60
2018-11-07T01:17:12.877Z,5.60
2018-11-07T01:19:43.832Z,5.40
2018-11-07T01:22:13.630Z,5.20
2018-11-07T01:24:43.457Z,5.10
2018-11-07T01:27:18.658Z,4.90
2018-11-07T01:29:52.373Z,4.80
2018-11-07T01:32:22.229Z,4.70
2018-11-07T01:34:52.164Z,4.70
2018-11-07T01:37:22.944Z,4.80
2018-11-07T01:39:55.909Z,4.90
2018-11-07T01:42:35.387Z,4.90
2018-11-07T01:45:07.709Z,4.90
2018-11-07T01:47:37.684Z,4.90
2018-11-07T01:50:12.857Z,4.90
2018-11-07T01:52:43.733Z,4.90
2018-11-07T01:55:14.532Z,4.80
2018-11-07T01:57:44.389Z,4.70
2018-11-07T02:00:15.241Z,4.70
2018-11-07T02:02:46.083Z,4.60
2018-11-07T02:05:16.897Z,4.60
2018-11-07T02:07:56.352Z,4.70
2018-11-07T02:10:26.281Z,4.90
2018-11-07T02:12:57.060Z,5.10
2018-11-07T02:15:27.905Z,5.20
2018-11-07T02:18:01.095Z,5.30
2018-11-07T02:20:36.445Z,5.30
2018-11-07T02:23:06.344Z,5.30
2018-11-07T02:25:36.188Z,5.10
2018-11-07T02:28:06.033Z,5.00
2018-11-07T02:30:35.893Z,4.90
2018-11-07T02:33:05.714Z,4.80
2018-11-07T02:35:36.533Z,4.80
2018-11-07T02:38:08.372Z,4.80
2018-11-07T02:40:58.857Z,4.90
2018-11-07T02:43:34.164Z,4.90
2018-11-07T02:46:04.091Z,4.90
2018-11-07T02:48:33.977Z,4.90
2018-11-07T02:51:03.809Z,4.80
2018-11-07T02:53:34.674Z,4.70
2018-11-07T02:56:04.425Z,4.50
2018-11-07T02:58:34.257Z,4.50
2018-11-07T03:01:04.318Z,4.60
2018-11-07T03:03:33.953Z,4.70
2018-11-07T03:06:03.857Z,4.60
2018-11-07T03:08:34.741Z,4.50
2018-11-07T03:11:04.829Z,4.40
2018-11-07T03:13:34.624Z,4.50
2018-11-07T03:16:05.945Z,4.40
2018-11-07T03:18:37.737Z,4.30
2018-11-07T03:21:19.673Z,4.30
2018-11-07T03:23:55.205Z,4.20
2018-11-07T03:26:25.101Z,4.30
2018-11-07T03:28:54.912Z,4.20
2018-11-07T03:31:25.009Z,4.10
2018-11-07T03:33:55.864Z,4.10
2018-11-07T03:36:26.697Z,4.10
2018-11-07T03:38:56.505Z,4.20
2018-11-07T03:41:30.389Z,4.20
2018-11-07T03:44:05.208Z,4.20
2018-11-07T03:46:38.207Z,4.30
2018-11-07T03:49:09.029Z,4.20
2018-11-07T03:51:39.913Z,4.20
2018-11-07T03:54:10.749Z,4.20
2018-11-07T03:56:44.427Z,4.00
2018-11-07T03:59:15.297Z,4.00
2018-11-07T04:01:51.741Z,3.90
2018-11-07T04:04:22.621Z,3.80
2018-11-07T04:06:52.413Z,3.70
2018-11-07T04:09:32.165Z,3.60
2018-11-07T04:12:05.708Z,3.70
2018-11-07T04:14:40.695Z,3.80
2018-11-07T04:17:11.504Z,3.90
2018-11-07T04:19:42.381Z,3.90
2018-11-07T04:22:13.217Z,3.70
2018-11-07T04:24:45.061Z,3.70
2018-11-07T04:27:14.948Z,3.70
2018-11-07T04:29:51.485Z,3.80
2018-11-07T04:32:22.485Z,3.80
2018-11-07T04:34:58.926Z,3.70
2018-11-07T04:37:32.346Z,3.60
2018-11-07T04:40:07.580Z,3.50
2018-11-07T04:42:37.545Z,3.50
2018-11-07T04:45:07.585Z,3.50
2018-11-07T04:47:38.465Z,3.50
2018-11-07T04:50:11.377Z,3.50
2018-11-07T04:52:41.280Z,3.60
2018-11-07T04:55:12.176Z,3.90
2018-11-07T04:57:42.093Z,4.10
2018-11-07T05:00:13.916Z,4.20
2018-11-07T05:02:44.709Z,4.10
2018-11-07T05:05:15.901Z,4.00
2018-11-07T05:07:45.746Z,3.90
2018-11-07T05:10:20.444Z,3.80
2018-11-07T05:12:51.293Z,3.80
2018-11-07T05:15:22.137Z,3.70
2018-11-07T05:17:51.965Z,3.70
2018-11-07T05:20:22.765Z,3.60
2018-11-07T05:22:53.929Z,3.60
2018-11-07T05:25:28.757Z,3.60
2018-11-07T05:27:58.661Z,3.60
2018-11-07T05:30:28.445Z,3.50
2018-11-07T05:32:58.349Z,3.50
2018-11-07T05:35:28.240Z,3.50
2018-11-07T05:37:59.817Z,3.40
2018-11-07T05:40:30.713Z,3.50
2018-11-07T05:43:06.001Z,3.40
2018-11-07T05:45:38.817Z,3.50
2018-11-07T05:48:08.721Z,3.60
2018-11-07T05:50:39.577Z,3.50
2018-11-07T05:53:09.441Z,3.50
2018-11-07T05:55:39.281Z,3.50
2018-11-07T05:58:12.341Z,3.40
2018-11-07T06:00:44.269Z,3.40
2018-11-07T06:03:17.093Z,3.40
2018-11-07T06:05:50.001Z,3.40
2018-11-07T06:08:19.771Z,3.40
2018-11-07T06:10:50.581Z,3.40
2018-11-07T06:13:20.358Z,3.40
2018-11-07T06:15:50.241Z,3.50
2018-11-07T06:18:20.027Z,3.40
2018-11-07T06:20:50.138Z,3.40
2018-11-07T06:23:32.309Z,3.30
2018-11-07T06:26:02.153Z,3.30
2018-11-07T06:28:32.026Z,3.40
2018-11-07T06:31:06.661Z,3.50
2018-11-07T06:33:37.593Z,3.60
2018-11-07T06:36:07.377Z,3.70
2018-11-07T06:38:40.305Z,3.80
2018-11-07T06:41:11.173Z,3.90
2018-11-07T06:43:42.581Z,4.00
2018-11-07T06:46:12.481Z,4.00
2018-11-07T06:48:44.325Z,3.90
2018-11-07T06:51:22.093Z,4.00
2018-11-07T06:53:53.011Z,4.10
2018-11-07T06:56:25.805Z,4.20
2018-11-07T06:58:56.790Z,4.30
2018-11-07T07:01:27.634Z,4.50
2018-11-07T07:04:00.521Z,4.90
2018-11-07T07:06:32.317Z,5.40
2018-11-07T07:09:05.169Z,5.80
2018-11-07T07:11:36.965Z,6.20
2018-11-07T07:14:10.185Z,6.40
2018-11-07T07:16:40.031Z,6.40
2018-11-07T07:19:15.165Z,6.30
2018-11-07T07:21:45.967Z,6.30
2018-11-07T07:24:15.845Z,6.30
2018-11-07T07:26:52.309Z,6.50
2018-11-07T07:29:22.137Z,6.70
2018-11-07T07:31:51.898Z,7.00
2018-11-07T07:34:21.762Z,7.00
2018-11-07T07:36:53.593Z,7.00
2018-11-07T07:39:23.501Z,7.10
2018-11-07T07:41:53.394Z,7.40
2018-11-07T07:44:26.384Z,7.70
2018-11-07T07:46:56.200Z,8.30
2018-11-07T07:49:27.167Z,8.60
2018-11-07T07:51:58.837Z,8.70
2018-11-07T07:54:28.690Z,9.10
2018-11-07T07:57:01.770Z,9.40
2018-11-07T07:59:31.562Z,9.60
2018-11-07T08:02:04.790Z,9.80
2018-11-07T08:04:36.733Z,9.80
2018-11-07T08:07:07.627Z,10.00
2018-11-07T08:09:40.606Z,10.30
2018-11-07T08:12:12.430Z,10.40
2018-11-07T08:14:42.262Z,10.60
2018-11-07T08:17:16.254Z,10.80
2018-11-07T08:19:47.085Z,11.00
2018-11-07T08:22:18.314Z,11.10
2018-11-07T08:24:51.742Z,11.30
2018-11-07T08:27:21.674Z,11.50
2018-11-07T08:29:51.462Z,11.70
2018-11-07T08:32:22.282Z,12.00
2018-11-07T08:34:53.097Z,12.40
2018-11-07T08:37:22.884Z,13.00
2018-11-07T08:39:53.770Z,13.50
2018-11-07T08:42:31.582Z,14.20
2018-11-07T08:45:03.401Z,14.80
2018-11-07T08:47:33.217Z,15.20
2018-11-07T08:50:04.649Z,16.10
2018-11-07T08:52:40.070Z,17.20
2018-11-07T08:55:11.877Z,17.90
2018-11-07T08:57:42.597Z,18.30
2018-11-07T09:00:16.087Z,19.30
2018-11-07T09:02:51.170Z,19.70
2018-11-07T09:05:21.848Z,20.10
2018-11-07T09:07:51.626Z,20.90
2018-11-07T09:10:24.234Z,21.10
2018-11-07T09:13:01.377Z,20.70
2018-11-07T09:15:44.602Z,21.30
2018-11-07T09:18:14.478Z,22.20
2018-11-07T09:20:45.354Z,22.70
2018-11-07T09:23:15.269Z,22.60
2018-11-07T09:25:47.025Z,23.20
2018-11-07T09:28:16.898Z,23.50
2018-11-07T09:30:49.826Z,24.00
2018-11-07T09:33:19.718Z,23.90
2018-11-07T09:35:51.590Z,24.30
2018-11-07T09:38:21.462Z,24.30
2018-11-07T09:40:56.645Z,24.90
2018-11-07T09:43:26.518Z,26.00
2018-11-07T09:45:56.377Z,26.40
2018-11-07T09:48:26.247Z,26.60
2018-11-07T09:51:00.682Z,27.10
2018-11-07T09:53:31.516Z,28.10
2018-11-07T09:56:02.302Z,28.10
2018-11-07T09:58:34.109Z,27.20
2018-11-07T10:01:06.184Z,26.50
2018-11-07T10:03:36.006Z,26.10
2018-11-07T10:06:05.965Z,24.40
2018-11-07T10:08:36.818Z,22.80
2018-11-07T10:11:07.102Z,22.00
2018-11-07T10:13:36.930Z,21.70
2018-11-07T10:16:07.722Z,22.20
2018-11-07T10:18:38.529Z,22.00
2018-11-07T10:21:08.397Z,21.80
2018-11-07T10:23:39.741Z,22.30
2018-11-07T10:26:11.890Z,22.20
2018-11-07T10:28:42.122Z,22.30
2018-11-07T10:31:11.714Z,22.40
2018-11-07T10:33:41.613Z,22.30
2018-11-07T10:36:12.670Z,21.80
2018-11-07T10:38:43.757Z,21.30
2018-11-07T10:41:13.814Z,21.00
2018-11-07T10:43:46.621Z,20.60
2018-11-07T10:46:16.517Z,20.10
2018-11-07T10:48:54.417Z,19.40
2018-11-07T10:51:29.525Z,19.30
2018-11-07T10:53:59.314Z,19.60
2018-11-07T10:56:31.042Z,19.70
2018-11-07T10:59:06.826Z,19.70
2018-11-07T11:01:54.022Z,19.80
2018-11-07T11:04:29.006Z,19.50
2018-11-07T11:07:01.923Z,19.30
2018-11-07T11:09:32.697Z,19.50
2018-11-07T11:12:03.450Z,19.80
2018-11-07T11:14:33.298Z,20.20
2018-11-07T11:17:03.631Z,21.10
2018-11-07T11:19:36.497Z,21.80
2018-11-07T11:22:06.838Z,21.80
2018-11-07T11:24:37.638Z,22.40
2018-11-07T11:27:07.451Z,22.80
2018-11-07T11:29:37.242Z,22.80
2018-11-07T11:32:08.718Z,22.90
2018-11-07T11:34:40.583Z,23.20
2018-11-07T11:37:10.382Z,23.20
2018-11-07T11:39:41.142Z,22.50
2018-11-07T11:42:11.957Z,22.10
2018-11-07T11:44:41.833Z,21.60
2018-11-07T11:47:12.606Z,21.60
2018-11-07T11:49:43.480Z,21.50
2018-11-07T11:52:13.269Z,20.70
2018-11-07T11:54:43.166Z,20.50
2018-11-07T11:57:13.140Z,21.30
2018-11-07T11:59:45.935Z,22.20
2018-11-07T12:02:17.552Z,22.80
2018-11-07T12:04:52.625Z,22.80
2018-11-07T12:07:23.634Z,23.30
2018-11-07T12:09:53.665Z,22.80
2018-11-07T12:12:26.842Z,22.40
2018-11-07T12:15:02.153Z,21.70
2018-11-07T12:17:32.979Z,20.30
2018-11-07T12:20:02.826Z,19.10
2018-11-07T12:22:32.678Z,18.60
2018-11-07T12:25:02.497Z,18.00
2018-11-07T12:27:33.282Z,17.90
2018-11-07T12:30:08.248Z,18.50
2018-11-07T12:32:41.534Z,19.50
2018-11-07T12:35:15.743Z,20.50
2018-11-07T12:37:49.017Z,20.80
2018-11-07T12:40:19.254Z,20.80
2018-11-07T12:42:50.145Z,20.40
2018-11-07T12:45:19.939Z,20.50
2018-11-07T12:47:49.790Z,20.90
2018-11-07T12:50:23.788Z,21.80
2018-11-07T12:52:54.646Z,21.70
2018-11-07T12:55:24.498Z,20.60
2018-11-07T12:57:56.384Z,19.90
2018-11-07T13:00:30.974Z,20.20
2018-11-07T13:03:01.885Z,20.70
2018-11-07T13:05:35.874Z,20.40
2018-11-07T13:08:06.810Z,20.00
2018-11-07T13:10:36.706Z,19.70
2018-11-07T13:13:07.574Z,19.40
2018-11-07T13:15:54.488Z,19.50
2018-11-07T13:18:24.378Z,19.40
2018-11-07T13:20:59.718Z,19.50
2018-11-07T13:23:29.610Z,20.00
2018-11-07T13:25:59.406Z,19.20
2018-11-07T13:28:29.302Z,18.90
2018-11-07T13:30:59.172Z,18.90
2018-11-07T13:33:28.963Z,18.80
2018-11-07T13:35:58.782Z,19.40
2018-11-07T13:38:30.940Z,19.30
2018-11-07T13:41:01.508Z,19.60
2018-11-07T13:43:31.438Z,20.00
2018-11-07T13:46:05.275Z,19.90
2018-11-07T13:48:35.934Z,19.40
2018-11-07T13:51:05.994Z,19.10
2018-11-07T13:53:35.794Z,18.80
2018-11-07T13:56:10.498Z,19.00
2018-11-07T13:58:41.297Z,19.00
2018-11-07T14:01:12.134Z,18.70
2018-11-07T14:03:41.970Z,18.30
2018-11-07T14:06:11.919Z,17.80
2018-11-07T14:08:41.770Z,17.50
2018-11-07T14:11:11.715Z,17.40
2018-11-07T14:13:41.603Z,17.60
2018-11-07T14:16:12.045Z,17.70
2018-11-07T14:18:45.548Z,17.40
2018-11-07T14:21:15.495Z,17.00
2018-11-07T14:23:54.859Z,16.70
2018-11-07T14:26:24.678Z,16.70
2018-11-07T14:28:54.494Z,16.60
2018-11-07T14:31:26.395Z,16.20
2018-11-07T14:33:56.359Z,16.20
2018-11-07T14:36:28.163Z,16.00
2018-11-07T14:38:58.062Z,15.40
2018-11-07T14:41:31.768Z,15.30
2018-11-07T14:44:02.775Z,15.10
2018-11-07T14:46:36.614Z,14.90
2018-11-07T14:49:07.363Z,15.10
2018-11-07T14:51:39.222Z,15.20
2018-11-07T14:54:10.047Z,14.90
2018-11-07T14:56:43.922Z,14.50
2018-11-07T14:59:18.779Z,14.20
2018-11-07T15:01:54.239Z,14.10
2018-11-07T15:04:27.851Z,14.00
2018-11-07T15:07:08.007Z,13.80
2018-11-07T15:09:38.963Z,13.70
2018-11-07T15:12:08.815Z,13.50
2018-11-07T15:14:39.675Z,13.10
2018-11-07T15:17:09.707Z,12.90
2018-11-07T15:19:39.603Z,12.50
2018-11-07T15:22:09.546Z,12.10
2018-11-07T15:24:40.502Z,11.60
2018-11-07T15:27:10.467Z,11.10
2018-11-07T15:29:40.638Z,10.80
2018-11-07T15:32:10.454Z,10.50
2018-11-07T15:34:40.342Z,10.20
2018-11-07T15:37:10.262Z,9.70
2018-11-07T15:39:41.145Z,9.40
2018-11-07T15:42:11.111Z,9.20
2018-11-07T15:44:40.999Z,9.10
2018-11-07T15:47:10.994Z,9.00
2018-11-07T15:49:41.894Z,8.90
2018-11-07T15:52:11.902Z,8.70
2018-11-07T15:54:41.687Z,8.60
2018-11-07T15:57:11.603Z,8.60
2018-11-07T15:59:41.389Z,8.50
2018-11-07T16:02:14.918Z,8.40
2018-11-07T16:04:45.723Z,8.30
2018-11-07T16:07:18.623Z,8.20
2018-11-07T16:09:48.515Z,8.20
2018-11-07T16:12:18.690Z,8.20
2018-11-07T16:14:48.575Z,8.20
2018-11-07T16:17:18.459Z,8.10
2018-11-07T16:19:54.027Z,8.10
2018-11-07T16:22:23.782Z,8.10
2018-11-07T16:24:54.583Z,8.10
2018-11-07T16:27:30.378Z,8.00
2018-11-07T16:30:03.855Z,8.00
2018-11-07T16:32:33.946Z,7.90
2018-11-07T16:35:04.067Z,7.80
2018-11-07T16:37:42.839Z,7.80
2018-11-07T16:40:14.295Z,7.80
2018-11-07T16:42:44.602Z,7.80
2018-11-07T16:45:18.594Z,7.70
2018-11-07T16:47:52.148Z,7.70
2018-11-07T16:50:23.834Z,7.60
2018-11-07T16:52:53.736Z,7.50
2018-11-07T16:55:23.611Z,7.50
2018-11-07T16:57:53.426Z,7.40
2018-11-07T17:00:31.541Z,7.40
2018-11-07T17:03:01.618Z,7.30
2018-11-07T17:05:31.450Z,7.40
2018-11-07T17:08:08.278Z,7.50
2018-11-07T17:10:43.630Z,7.60
2018-11-07T17:13:31.431Z,7.60
2018-11-07T17:16:03.290Z,7.60
2018-11-07T17:18:49.234Z,7.40
2018-11-07T17:21:33.182Z,7.20
2018-11-07T17:24:09.602Z,7.10
2018-11-07T17:26:39.421Z,7.00
2018-11-07T17:29:09.243Z,7.00
2018-11-07T17:31:39.195Z,7.20
2018-11-07T17:34:09.938Z,7.20
2018-11-07T17:36:41.834Z,7.30
2018-11-07T17:39:13.710Z,7.30
2018-11-07T17:41:45.641Z,7.30
2018-11-07T17:44:25.507Z,7.10
2018-11-07T17:46:55.434Z,6.90
2018-11-07T17:49:25.222Z,6.80
2018-11-07T17:51:56.062Z,6.70
2018-11-07T17:54:26.882Z,6.60
2018-11-07T17:57:08.534Z,6.50
2018-11-07T17:59:38.670Z,6.50
2018-11-07T18:02:09.446Z,6.70
2018-11-07T18:04:40.210Z,6.90
2018-11-07T18:07:10.002Z,7.10
2018-11-07T18:09:39.901Z,7.20
2018-11-07T18:12:10.430Z,7.10
2018-11-07T18:14:40.554Z,7.10
2018-11-07T18:17:10.470Z,7.00
2018-11-07T18:19:45.546Z,7.00
2018-11-07T18:22:21.890Z,6.90
2018-11-07T18:24:56.264Z,6.80
2018-11-07T18:27:27.283Z,6.90
2018-11-07T18:29:58.043Z,6.90
2018-11-07T18:32:28.922Z,6.90
2018-11-07T18:35:00.058Z,6.80
2018-11-07T18:37:29.974Z,6.80
2018-11-07T18:40:00.863Z,6.70
2018-11-07T18:42:30.706Z,6.60
2018-11-07T18:45:00.526Z,6.60
2018-11-07T18:47:30.334Z,6.70
2018-11-07T18:50:01.183Z,6.70
2018-11-07T18:52:31.002Z,6.70
2018-11-07T18:55:01.933Z,6.70
2018-11-07T18:57:31.898Z,6.60
2018-11-07T19:00:04.350Z,6.50
2018-11-07T19:02:36.246Z,6.30
2018-11-07T19:05:10.132Z,6.20
2018-11-07T19:07:59.882Z,6.10
2018-11-07T19:10:48.658Z,6.00
2018-11-07T19:13:18.472Z,6.00
2018-11-07T19:15:49.375Z,6.00
2018-11-07T19:18:23.650Z,6.10
2018-11-07T19:20:54.578Z,6.10
2018-11-07T19:23:24.390Z,6.20
2018-11-07T19:25:55.482Z,6.10
2018-11-07T19:28:32.747Z,6.10
2018-11-07T19:31:02.650Z,6.10
2018-11-07T19:33:34.442Z,6.10
2018-11-07T19:36:07.746Z,6.00
2018-11-07T19:38:37.695Z,6.00
2018-11-07T19:41:08.581Z,6.00
2018-11-07T19:43:40.468Z,6.10
2018-11-07T19:46:10.450Z,6.00
2018-11-07T19:48:46.006Z,5.90
2018-11-07T19:51:16.058Z,5.70
2018-11-07T19:53:50.658Z,5.60
2018-11-07T19:56:24.677Z,5.40
2018-11-07T19:58:59.498Z,5.30
2018-11-07T20:01:35.158Z,5.20
2018-11-07T20:04:05.725Z,5.20
2018-11-07T20:06:37.714Z,5.10
2018-11-07T20:09:11.298Z,5.00
2018-11-07T20:11:42.450Z,4.90
2018-11-07T20:14:13.274Z,4.80
2018-11-07T20:16:46.518Z,4.70
2018-11-07T20:19:18.362Z,4.80
2018-11-07T20:21:50.718Z,4.80
2018-11-07T20:24:24.202Z,4.70
2018-11-07T20:27:05.894Z,4.60
2018-11-07T20:29:43.521Z,4.50
2018-11-07T20:32:15.318Z,4.60
2018-11-07T20:34:51.142Z,4.60
2018-11-07T20:37:21.990Z,4.60
2018-11-07T20:39:52.862Z,4.40
2018-11-07T20:42:22.826Z,4.30
2018-11-07T20:44:57.754Z,4.20
2018-11-07T20:47:27.674Z,4.20
2018-11-07T20:49:57.599Z,4.20
2018-11-07T20:52:28.430Z,4.20
2018-11-07T20:55:08.282Z,4.20
2018-11-07T20:57:39.135Z,4.10
2018-11-07T21:00:12.704Z,4.00
2018-11-07T21:02:45.170Z,3.90
2018-11-07T21:05:27.354Z,3.90
2018-11-07T21:08:02.674Z,3.90
2018-11-07T21:10:35.350Z,3.90
2018-11-07T21:13:05.410Z,4.00
2018-11-07T21:15:35.306Z,4.00
2018-11-07T21:18:06.094Z,3.90
2018-11-07T21:20:36.390Z,3.90
2018-11-07T21:23:07.622Z,3.80
2018-11-07T21:25:43.023Z,3.70
2018-11-07T21:28:14.202Z,3.70
2018-11-07T21:30:46.392Z,3.70
2018-11-07T21:33:29.786Z,3.70
2018-11-07T21:36:05.666Z,3.70
2018-11-07T21:38:37.927Z,3.70
2018-11-07T21:41:07.910Z,3.70
2018-11-07T21:43:37.841Z,3.70
2018-11-07T21:46:11.241Z,3.60
2018-11-07T21:48:46.323Z,3.50
2018-11-07T21:51:20.087Z,3.50
2018-11-07T21:53:54.142Z,3.50
2018-11-07T21:56:31.826Z,3.60
2018-11-07T21:59:11.578Z,3.60
2018-11-07T22:01:44.914Z,3.70
2018-11-07T22:04:17.998Z,3.70
2018-11-07T22:06:55.478Z,3.70
2018-11-07T22:09:25.386Z,3.60
2018-11-07T22:11:57.359Z,3.50
2018-11-07T22:14:27.238Z,3.50
2018-11-07T22:16:57.982Z,3.40
2018-11-07T22:19:28.878Z,3.40
2018-11-07T22:21:58.771Z,3.40
2018-11-07T22:24:28.666Z,3.50
2018-11-07T22:27:06.243Z,3.50
2018-11-07T22:29:39.811Z,3.60
2018-11-07T22:32:11.615Z,3.50
2018-11-07T22:34:43.003Z,3.50
2018-11-07T22:37:16.569Z,3.50
2018-11-07T22:39:47.323Z,3.50
2018-11-07T22:42:17.226Z,3.40
2018-11-07T22:44:47.115Z,3.30
2018-11-07T22:47:17.947Z,3.30
2018-11-07T22:50:01.643Z,3.20
2018-11-07T22:52:32.439Z,3.30
2018-11-07T22:55:02.336Z,3.40
2018-11-07T22:57:33.175Z,3.40
2018-11-07T23:00:03.024Z,3.50
2018-11-07T23:02:34.848Z,3.40
2018-11-07T23:05:06.068Z,3.20
2018-11-07T23:07:35.939Z,3.20
2018-11-07T23:10:11.896Z,3.00
2018-11-07T23:12:43.760Z,2.90
2018-11-07T23:15:18.942Z,2.90
2018-11-07T23:17:48.767Z,2.90
2018-11-07T23:20:24.157Z,2.90
2018-11-07T23:22:55.043Z,2.90
2018-11-07T23:25:24.887Z,3.10
2018-11-07T23:28:02.330Z,3.10
2018-11-07T23:30:39.194Z,3.30
2018-11-07T23:33:09.059Z,3.40
2018-11-07T23:35:39.759Z,3.30
2018-11-07T23:38:11.591Z,3.30
2018-11-07T23:40:42.499Z,3.30
2018-11-07T23:43:20.503Z,3.30
2018-11-07T23:45:52.327Z,3.30
2018-11-07T23:48:22.220Z,3.30
2018-11-07T23:50:57.731Z,3.30
2018-11-07T23:53:28.627Z,3.40
2018-11-07T23:56:02.859Z,3.40
2018-11-07T23:58:35.819Z,3.50
